Página principal
METAR-TAF:

METAR-TAF

Aeroportos :

Aeroporto Internacional de Honiara

Honiara, Guadalcanal, Ilhas Salomão

latitude: 09-25S, longitude: 160-03E, altura: 8 m

Observação actual do tempo

O boletim foi feito há 13 minutos, às 01:00 UTC
Vento 2 kt de nor-noroeste
Temperatura 31°C
Humidade 71%
Pressão 1009 hPa
Visibilidade 10 km ou mais
Poucas nuvensa uma altura de 2000 ft

METAR: AGGH 160100Z 34002KT 9999 FEW020 31/25 Q1009

Hora: 12:13 (01:13 UTC)

Previsão

O boletim foi feito há 2 horas e 3 minutos, às 23:10 UTC
Previsão válida de 16 às 00 UTC a 16 às 24 UTC
Vento 12 kt de es-nordeste
Visibilidade: 1009 m
Nuvens dispersasa uma altura de 2000 ft
Nuvens dispersasa uma altura de 3000 ft

TAF: AGGH 152310Z 1600/1624 07012KT 9999 SCT020 SCT030 T 31 32 30 27 Q 1010 1008 1007 1009

Observações e previsões do tempo de mais de 4000 aeroportos (mensagens METAR e TAF).

As estações disponíveis são os pontos amarelos e vermelhos sobre o mapa.

Mova o rato sobre o mapa para ver o nome da estação.

Depois clique no ponto para visualizar as observações e previsões meteorológicas.

Para alterar o mapa : clique nos botões verdes com uma cruz preta para aumentar o zoom; no botão verde com uma pitada de zoom; ou nas setas verdes para mapas adjacentes.


METAR-TAF: